Time;durP1;ratioP1;P1;durP2;ratioP2;P2;SDS_P1;SDS_P2;PMS_P1;PMS_P2;Temp;Humidity;BMP_temperature;BMP_pressure;BME280_temperature;BME280_humidity;BME280_pressure;Samples;Min_cycle;Max_cycle;Signal;HPM_P1;HPM_P2
2023/12/28 00:00:06;;;;;;;16.93;11.77;;;;;;;9.08;67.37;95681.66;5048883;28;20264;-68
2023/12/28 00:02:33;;;;;;;18.00;11.23;;;;;;;8.87;67.28;95659.22;5049134;28;20184;-70
2023/12/28 00:05:00;;;;;;;16.43;10.90;;;;;;;9.04;67.23;95679.31;5048815;28;20540;-67
2023/12/28 00:07:29;;;;;;;20.27;11.80;;;;;;;9.02;67.18;95678.59;5049072;28;20187;-65
2023/12/28 00:09:55;;;;;;;18.07;11.67;;;;;;;9.01;67.27;95684.59;5048933;28;20202;-68
2023/12/28 00:12:23;;;;;;;18.03;11.33;;;;;;;9.00;67.20;95690.63;5048829;28;20183;-71
2023/12/28 00:14:49;;;;;;;19.50;11.43;;;;;;;8.99;67.26;95691.56;5049011;28;20179;-68
2023/12/28 00:17:16;;;;;;;18.20;11.40;;;;;;;8.72;67.23;95657.69;5049213;28;20552;-71
2023/12/28 00:19:43;;;;;;;19.07;11.00;;;;;;;8.96;67.21;95696.06;5048659;28;20223;-71
2023/12/28 00:22:10;;;;;;;16.27;11.27;;;;;;;8.93;67.20;95699.63;5048645;28;20183;-74
2023/12/28 00:24:38;;;;;;;17.30;10.70;;;;;;;8.91;67.19;95698.09;5049083;28;20184;-66
2023/12/28 00:27:05;;;;;;;22.13;13.47;;;;;;;8.90;67.23;95696.47;5048972;28;20194;-64
2023/12/28 00:29:32;;;;;;;39.27;22.00;;;;;;;8.87;67.44;95694.13;5048859;28;20183;-68
2023/12/28 00:31:59;;;;;;;32.73;18.33;;;;;;;8.86;67.25;95700.16;5048672;28;20680;-70
2023/12/28 00:34:26;;;;;;;30.97;17.60;;;;;;;8.78;67.21;95698.09;5048639;28;20230;-66
2023/12/28 00:36:53;;;;;;;27.67;16.70;;;;;;;8.84;67.39;95701.97;5048767;28;20179;-67
2023/12/28 00:39:19;;;;;;;31.50;17.33;;;;;;;8.69;67.13;95683.41;5050259;28;20190;-65
2023/12/28 00:41:48;;;;;;;26.03;15.60;;;;;;;8.81;67.37;95705.56;5052104;28;20622;-64
2023/12/28 00:44:14;;;;;;;29.83;16.47;;;;;;;8.80;67.25;95698.81;5052196;28;20191;-64
2023/12/28 00:46:41;;;;;;;23.77;14.50;;;;;;;8.78;67.23;95706.56;5051980;28;20187;-67
2023/12/28 00:49:08;;;;;;;24.40;15.23;;;;;;;8.77;67.27;95717.69;5051841;28;20612;-67
2023/12/28 00:51:35;;;;;;;26.20;15.27;;;;;;;8.54;67.61;95682.66;5052267;28;20271;-67
2023/12/28 00:54:02;;;;;;;24.67;15.20;;;;;;;8.73;67.43;95721.34;5052061;28;20233;-64
2023/12/28 00:56:28;;;;;;;26.87;15.70;;;;;;;8.72;67.36;95724.84;5052072;28;20191;-65
2023/12/28 00:58:56;;;;;;;25.27;15.33;;;;;;;8.71;67.28;95725.72;5051842;28;20619;-65
2023/12/28 01:01:23;;;;;;;24.17;14.13;;;;;;;8.69;67.53;95725.03;5051902;28;20198;-69
2023/12/28 01:03:50;;;;;;;22.73;14.63;;;;;;;8.62;67.49;95713.59;5051586;28;20187;-68
2023/12/28 01:06:17;;;;;;;23.50;14.47;;;;;;;8.66;67.42;95721.84;5052155;28;20187;-72
2023/12/28 01:08:44;;;;;;;20.70;14.23;;;;;;;8.46;67.50;95695.94;5051523;28;20187;-72
2023/12/28 01:11:12;;;;;;;25.47;13.53;;;;;;;8.60;67.51;95714.63;5052033;28;20221;-70
2023/12/28 01:13:38;;;;;;;22.40;14.23;;;;;;;8.61;67.51;95717.06;5051445;28;20288;-73
2023/12/28 01:16:07;;;;;;;22.23;13.20;;;;;;;8.60;67.43;95712.88;5051869;28;20191;-73
2023/12/28 01:18:34;;;;;;;23.10;13.90;;;;;;;8.42;67.65;95688.56;5051262;28;20633;-73
2023/12/28 01:21:01;;;;;;;20.27;13.70;;;;;;;8.59;67.54;95721.44;5051715;28;20190;-68
2023/12/28 01:23:27;;;;;;;23.60;13.87;;;;;;;8.58;67.62;95713.88;5051619;28;20183;-73
2023/12/28 01:25:56;;;;;;;22.27;13.20;;;;;;;8.57;67.73;95722.47;5051483;28;20183;-71
2023/12/28 01:28:23;;;;;;;24.50;13.20;;;;;;;8.52;67.53;95710.00;5051718;28;20202;-67
2023/12/28 01:30:49;;;;;;;21.30;13.00;;;;;;;8.54;67.73;95711.53;5051183;28;20192;-74
2023/12/28 01:33:17;;;;;;;22.33;12.90;;;;;;;8.52;67.56;95718.47;5051196;28;20234;-69
2023/12/28 01:35:44;;;;;;;23.83;12.87;;;;;;;8.28;67.72;95677.50;5050872;28;20674;-71
2023/12/28 01:38:11;;;;;;;24.83;12.83;;;;;;;8.49;67.73;95707.66;5051300;28;20703;-70
2023/12/28 01:40:38;;;;;;;20.87;12.33;;;;;;;8.47;67.77;95701.84;5051027;28;20607;-71
2023/12/28 01:43:05;;;;;;;21.23;11.77;;;;;;;8.47;67.75;95705.22;5051117;28;20194;-70
2023/12/28 01:45:31;;;;;;;23.60;13.17;;;;;;;8.41;67.83;95695.41;5051168;28;20194;-73
2023/12/28 01:48:00;;;;;;;23.13;12.87;;;;;;;8.44;67.74;95704.59;5052413;28;20343;-73
2023/12/28 01:50:28;;;;;;;24.37;12.67;;;;;;;8.43;67.81;95700.41;5053339;28;20268;-69
2023/12/28 01:52:58;;;;;;;21.20;12.50;;;;;;;8.43;67.79;95702.97;5060165;28;20225;-69
2023/12/28 01:55:27;;;;;;;24.03;12.57;;;;;;;8.16;67.90;95662.19;5052363;28;20183;-69
2023/12/28 01:57:54;;;;;;;23.73;13.40;;;;;;;8.37;67.74;95696.53;5051111;28;20203;-72
2023/12/28 02:00:22;;;;;;;18.60;11.77;;;;;;;8.27;67.88;95682.72;5055049;28;20183;-72
2023/12/28 02:02:49;;;;;;;21.40;11.50;;;;;;;8.37;67.92;95701.63;5054977;28;20199;-73
2023/12/28 02:05:16;;;;;;;20.43;11.57;;;;;;;8.37;67.95;95704.16;5052644;28;20261;-67
2023/12/28 02:07:44;;;;;;;20.17;11.90;;;;;;;8.09;67.82;95661.78;5050640;28;20215;-71
2023/12/28 02:10:11;;;;;;;18.53;11.43;;;;;;;8.35;67.90;95702.63;5050887;28;20202;-72
2023/12/28 02:12:38;;;;;;;24.07;12.00;;;;;;;8.34;67.90;95703.53;5050528;28;20191;-72
2023/12/28 02:15:06;;;;;;;22.13;12.40;;;;;;;8.32;67.71;95697.72;5050503;28;20595;-71
2023/12/28 02:17:37;;;;;;;21.43;12.53;;;;;;;8.30;67.99;95698.63;5050244;28;20241;-70
2023/12/28 02:20:07;;;;;;;20.53;11.70;;;;;;;8.25;68.04;95695.56;5050315;28;20234;-71
2023/12/28 02:22:35;;;;;;;18.30;11.30;;;;;;;8.27;68.08;95698.81;5050411;28;20622;-75
2023/12/28 02:25:06;;;;;;;24.50;12.07;;;;;;;8.24;67.81;95688.81;5050394;28;20545;-74
2023/12/28 02:27:35;;;;;;;16.67;11.17;;;;;;;8.26;68.02;95693.84;5050089;28;20225;-72
2023/12/28 02:30:02;;;;;;;17.40;11.40;;;;;;;8.24;67.60;95693.09;5050344;28;20191;-73
2023/12/28 02:32:39;;;;;;;19.83;12.03;;;;;;;8.23;67.94;95696.56;5050015;28;20190;-74
2023/12/28 02:35:17;;;;;;;18.33;11.57;;;;;;;7.87;67.86;95644.53;5050545;28;20227;-72
2023/12/28 02:37:45;;;;;;;18.80;11.43;;;;;;;8.19;68.13;95695.94;5050183;28;20290;-73
2023/12/28 02:40:17;;;;;;;18.03;10.97;;;;;;;8.13;67.97;95685.34;5050107;28;20253;-71
2023/12/28 02:42:44;;;;;;;18.63;10.73;;;;;;;8.14;68.15;95694.63;5049651;28;20289;-70
2023/12/28 02:45:11;;;;;;;18.93;11.13;;;;;;;8.09;68.02;95682.16;5050421;28;20191;-73
2023/12/28 02:47:37;;;;;;;22.37;11.83;;;;;;;8.15;68.16;95704.69;5049977;28;20282;-72
2023/12/28 02:50:05;;;;;;;16.37;11.23;;;;;;;8.08;67.99;95693.28;5050101;28;20616;-73
2023/12/28 02:52:32;;;;;;;19.20;11.23;;;;;;;8.13;68.06;95696.34;5049641;28;20281;-73
2023/12/28 02:54:58;;;;;;;17.73;11.63;;;;;;;8.12;67.99;95688.78;5050271;28;20265;-75
2023/12/28 02:57:27;;;;;;;18.97;10.97;;;;;;;8.10;68.11;95696.53;5049549;28;20577;-75
2023/12/28 02:59:53;;;;;;;17.10;11.40;;;;;;;8.04;68.34;95689.28;5049903;28;20190;-73
2023/12/28 03:02:20;;;;;;;16.97;10.87;;;;;;;8.04;68.11;95676.56;5049255;28;20210;-74
2023/12/28 03:04:47;;;;;;;18.53;11.17;;;;;;;8.00;68.12;95670.84;5049348;28;20191;-73
2023/12/28 03:07:14;;;;;;;15.73;11.50;;;;;;;8.04;68.11;95679.91;5049705;28;20679;-72
2023/12/28 03:09:40;;;;;;;21.07;11.87;;;;;;;8.04;68.02;95674.00;5049276;28;20187;-73
2023/12/28 03:12:08;;;;;;;18.77;12.43;;;;;;;8.04;68.11;95672.28;5049575;28;20679;-66
2023/12/28 03:14:36;;;;;;;16.50;12.17;;;;;;;8.02;68.23;95663.09;5049878;28;20223;-67
2023/12/28 03:17:02;;;;;;;21.07;12.87;;;;;;;8.00;68.11;95670.84;5050096;28;20203;-66
2023/12/28 03:19:29;;;;;;;19.40;12.33;;;;;;;7.89;68.12;95657.16;5049213;28;20238;-71
2023/12/28 03:21:56;;;;;;;21.57;13.07;;;;;;;7.98;68.32;95670.09;5049417;28;20223;-74
2023/12/28 03:24:23;;;;;;;20.07;12.90;;;;;;;7.98;68.17;95676.94;5049295;28;20245;-70
2023/12/28 03:26:50;;;;;;;19.60;12.40;;;;;;;7.97;68.20;95676.13;5049183;28;20195;-65
2023/12/28 03:29:16;;;;;;;25.07;12.73;;;;;;;7.91;68.37;95668.06;5049392;28;20622;-70
2023/12/28 03:31:44;;;;;;;20.00;13.00;;;;;;;7.95;68.29;95677.16;5049524;28;20343;-73
2023/12/28 03:34:11;;;;;;;22.10;13.60;;;;;;;7.94;68.33;95680.59;5049200;28;20703;-73
2023/12/28 03:36:38;;;;;;;24.07;13.40;;;;;;;7.91;68.41;95686.72;5049240;28;20214;-71
2023/12/28 03:39:05;;;;;;;20.63;12.40;;;;;;;7.92;68.48;95690.06;5049297;28;20664;-70
2023/12/28 03:41:31;;;;;;;19.00;13.00;;;;;;;7.84;68.51;95687.19;5048870;28;20183;-70
2023/12/28 03:43:58;;;;;;;20.20;13.50;;;;;;;7.89;68.39;95695.34;5049526;28;20225;-68
2023/12/28 03:46:25;;;;;;;19.80;11.80;;;;;;;7.87;68.55;95700.53;5049189;28;20290;-68
2023/12/28 03:48:53;;;;;;;28.33;12.90;;;;;;;7.86;68.56;95695.53;5049396;28;20656;-67
2023/12/28 03:51:20;;;;;;;20.90;13.20;;;;;;;7.83;68.44;95705.94;5049260;28;20396;-74
2023/12/28 03:53:47;;;;;;;19.37;13.17;;;;;;;7.52;68.49;95659.47;5049440;28;20595;-68
2023/12/28 03:56:24;;;;;;;23.17;13.73;;;;;;;7.83;68.61;95719.47;5049221;28;20187;-74
2023/12/28 03:58:51;;;;;;;24.13;13.57;;;;;;;7.82;68.46;95717.03;5048894;28;20577;-74
2023/12/28 04:01:19;;;;;;;17.83;12.10;;;;;;;7.66;68.53;95684.88;5049177;28;20261;-70
2023/12/28 04:03:46;;;;;;;20.10;13.17;;;;;;;7.72;68.55;95702.31;5049058;28;20215;-68
2023/12/28 04:06:15;;;;;;;18.13;13.03;;;;;;;7.58;68.54;95681.19;5049327;28;20194;-72
2023/12/28 04:08:43;;;;;;;18.57;12.40;;;;;;;7.77;68.62;95709.66;5049059;28;20179;-74
2023/12/28 04:11:10;;;;;;;19.43;12.67;;;;;;;7.77;68.60;95713.03;5049259;28;20191;-71
2023/12/28 04:13:37;;;;;;;18.27;12.67;;;;;;;7.65;68.75;95695.16;5049426;28;20210;-69
2023/12/28 04:16:04;;;;;;;21.57;12.53;;;;;;;7.74;68.53;95710.69;5053165;28;20210;-74
2023/12/28 04:18:31;;;;;;;18.37;12.73;;;;;;;7.68;68.41;95708.50;5053289;28;20253;-70
2023/12/28 04:20:58;;;;;;;25.53;12.50;;;;;;;7.71;68.61;95715.94;5053250;28;20179;-72
2023/12/28 04:23:26;;;;;;;18.90;12.57;;;;;;;7.65;68.77;95703.63;5053897;28;20183;-67
2023/12/28 04:25:53;;;;;;;18.10;12.17;;;;;;;7.50;68.61;95684.19;5055265;28;20593;-69
2023/12/28 04:28:19;;;;;;;18.37;13.57;;;;;;;7.64;68.72;95702.00;5059410;28;20206;-64
2023/12/28 04:30:46;;;;;;;17.67;11.97;;;;;;;7.40;68.68;95672.94;5061188;28;20191;-67
2023/12/28 04:33:13;;;;;;;20.90;12.43;;;;;;;7.66;68.78;95712.06;5052614;28;20202;-70
2023/12/28 04:35:40;;;;;;;18.67;12.40;;;;;;;7.64;68.60;95714.72;5052392;28;20222;-68
2023/12/28 04:38:09;;;;;;;18.80;12.07;;;;;;;7.61;68.60;95706.44;5052390;28;20202;-68
2023/12/28 04:40:37;;;;;;;21.40;12.90;;;;;;;7.48;68.60;95699.56;5052869;28;20241;-68
2023/12/28 04:43:04;;;;;;;22.07;12.80;;;;;;;7.61;68.80;95714.09;5051923;28;20691;-70
2023/12/28 04:45:31;;;;;;;18.97;12.27;;;;;;;7.60;68.75;95712.44;5052322;28;20245;-65
2023/12/28 04:47:58;;;;;;;18.30;13.03;;;;;;;7.60;68.74;95709.88;5052193;28;20256;-73
2023/12/28 04:50:24;;;;;;;20.10;13.13;;;;;;;7.58;68.33;95715.06;5052249;28;20187;-73
2023/12/28 04:52:51;;;;;;;22.13;13.07;;;;;;;7.57;68.69;95713.44;5052335;28;20187;-72
2023/12/28 04:55:18;;;;;;;20.03;13.00;;;;;;;7.29;68.67;95664.22;5052533;28;20230;-69
2023/12/28 04:57:46;;;;;;;17.77;11.77;;;;;;;7.51;68.55;95703.63;5051829;28;20552;-72
2023/12/28 05:00:13;;;;;;;17.43;12.23;;;;;;;7.54;68.65;95704.25;5051929;28;20191;-73
2023/12/28 05:02:40;;;;;;;21.30;12.57;;;;;;;7.51;68.84;95704.47;5052040;28;20563;-72
2023/12/28 05:05:08;;;;;;;21.80;11.87;;;;;;;7.53;68.75;95706.91;5051987;28;20250;-70
2023/12/28 05:07:35;;;;;;;18.53;11.60;;;;;;;7.53;68.74;95709.47;5052196;28;20195;-74
2023/12/28 05:10:02;;;;;;;20.27;11.90;;;;;;;7.53;68.63;95706.91;5051805;28;20202;-73
2023/12/28 05:12:29;;;;;;;17.33;12.47;;;;;;;7.51;68.74;95704.47;5052207;28;20202;-74
2023/12/28 05:14:57;;;;;;;22.00;13.13;;;;;;;7.51;68.88;95709.56;5051618;28;20227;-70
2023/12/28 05:17:24;;;;;;;21.00;12.77;;;;;;;7.42;68.73;95692.28;5051863;28;20187;-73
2023/12/28 05:19:51;;;;;;;19.23;11.50;;;;;;;7.45;68.75;95704.81;5051448;28;20218;-74
2023/12/28 05:22:17;;;;;;;19.80;13.37;;;;;;;7.49;68.66;95711.38;5051681;28;20187;-70
2023/12/28 05:24:44;;;;;;;19.33;13.17;;;;;;;7.48;68.75;95709.75;5051439;28;20187;-78
2023/12/28 05:27:11;;;;;;;18.80;12.23;;;;;;;7.47;68.72;95707.25;5050987;28;20198;-75
2023/12/28 05:29:38;;;;;;;21.57;12.10;;;;;;;7.47;68.77;95712.34;5051498;28;20780;-71
2023/12/28 05:32:07;;;;;;;21.70;12.23;;;;;;;7.37;68.87;95701.13;5051624;28;20660;-73
2023/12/28 05:34:33;;;;;;;18.00;12.83;;;;;;;7.25;68.77;95683.16;5051566;28;20230;-71
2023/12/28 05:37:00;;;;;;;22.37;12.90;;;;;;;7.45;68.93;95720.09;5051308;28;20203;-68
2023/12/28 05:39:27;;;;;;;18.10;12.13;;;;;;;7.45;68.80;95719.28;5051606;28;20300;-65
2023/12/28 05:41:54;;;;;;;22.07;13.37;;;;;;;7.44;68.92;95723.56;5051067;28;20195;-72
2023/12/28 05:44:21;;;;;;;19.10;12.67;;;;;;;7.45;68.85;95725.19;5051361;28;20191;-71
2023/12/28 05:46:47;;;;;;;18.30;11.47;;;;;;;7.44;68.81;95726.09;5051197;28;20237;-65
2023/12/28 05:49:16;;;;;;;18.50;12.87;;;;;;;7.44;68.85;95727.84;5051576;28;20253;-69
2023/12/28 05:51:43;;;;;;;18.37;11.43;;;;;;;7.44;68.72;95731.19;5050786;28;20226;-65
2023/12/28 05:54:10;;;;;;;19.43;12.90;;;;;;;7.44;68.82;95727.84;5051023;28;20663;-68
2023/12/28 05:56:36;;;;;;;16.90;11.43;;;;;;;7.32;68.84;95715.84;5051044;28;20198;-65
2023/12/28 05:59:03;;;;;;;19.50;11.97;;;;;;;7.44;68.99;95731.19;5051410;28;20199;-65
2023/12/28 06:01:30;;;;;;;23.13;12.90;;;;;;;7.46;68.92;95736.19;5050925;28;20186;-64
2023/12/28 06:03:57;;;;;;;17.70;11.30;;;;;;;7.46;68.95;95742.09;5051402;28;20191;-70
2023/12/28 06:06:25;;;;;;;17.87;12.17;;;;;;;7.46;68.97;95737.00;5050906;28;20206;-65
2023/12/28 06:08:52;;;;;;;17.10;12.37;;;;;;;7.43;68.96;95736.38;5050446;28;20195;-65
2023/12/28 06:11:19;;;;;;;19.20;11.67;;;;;;;7.49;68.95;95741.91;5051042;28;20183;-69
2023/12/28 06:13:45;;;;;;;17.07;12.07;;;;;;;7.51;68.92;95740.09;5050161;28;20314;-69
2023/12/28 06:16:12;;;;;;;18.17;11.50;;;;;;;7.53;68.94;95738.28;5051263;28;20234;-66
2023/12/28 06:18:39;;;;;;;19.57;11.93;;;;;;;7.57;68.81;95744.00;5051657;28;20223;-70
2023/12/28 06:21:06;;;;;;;17.77;10.93;;;;;;;7.60;68.84;95742.97;5050944;28;20297;-71
2023/12/28 06:23:34;;;;;;;14.97;11.50;;;;;;;7.63;68.86;95751.25;5050296;28;20194;-67
2023/12/28 06:26:06;;;;;;;17.90;12.33;;;;;;;7.67;68.84;95746.78;5050479;28;20202;-67
2023/12/28 06:28:33;;;;;;;16.17;10.77;;;;;;;7.77;68.42;95746.16;5050190;28;20226;-65
2023/12/28 06:31:00;;;;;;;20.00;12.03;;;;;;;8.00;68.05;95746.44;5050310;28;20191;-65
2023/12/28 06:33:28;;;;;;;21.07;11.60;;;;;;;8.28;67.89;95746.31;5050191;28;20187;-67
2023/12/28 06:35:57;;;;;;;18.93;11.20;;;;;;;8.61;67.67;95750.22;5050367;28;20243;-66
2023/12/28 06:38:24;;;;;;;17.50;11.47;;;;;;;8.97;67.62;95748.69;5049981;28;20659;-68
2023/12/28 06:40:52;;;;;;;18.83;12.17;;;;;;;9.36;67.31;95746.94;5050037;28;20225;-68
2023/12/28 06:43:19;;;;;;;15.73;10.73;;;;;;;9.75;67.57;95751.88;5050183;28;20194;-68
2023/12/28 06:45:49;;;;;;;16.00;11.07;;;;;;;10.18;67.56;95742.94;5050257;28;20183;-69
2023/12/28 06:48:16;;;;;;;17.17;11.53;;;;;;;10.60;67.64;95746.72;5050277;28;20187;-70
2023/12/28 06:50:42;;;;;;;15.40;10.33;;;;;;;11.06;67.49;95748.47;5049768;28;20629;-70
2023/12/28 06:53:09;;;;;;;15.50;10.37;;;;;;;11.50;67.21;95752.78;5049725;28;20191;-68
2023/12/28 06:55:36;;;;;;;15.73;10.97;;;;;;;11.93;66.65;95754.63;5049570;28;20229;-68
2023/12/28 06:58:07;;;;;;;14.30;10.37;;;;;;;12.43;66.03;95754.13;5050086;28;20202;-72
2023/12/28 07:00:33;;;;;;;19.00;10.70;;;;;;;12.88;65.52;95754.72;5050833;28;20209;-71
2023/12/28 07:03:00;;;;;;;17.67;10.90;;;;;;;13.29;64.92;95748.75;5051503;28;20218;-67
2023/12/28 07:05:27;;;;;;;14.80;10.57;;;;;;;13.77;64.13;95766.16;5057763;28;20195;-66
2023/12/28 07:07:54;;;;;;;14.37;9.67;;;;;;;14.11;63.50;95747.78;5054372;28;20187;-65
2023/12/28 07:10:21;;;;;;;15.80;11.17;;;;;;;14.64;62.65;95760.34;5049921;28;20199;-69
2023/12/28 07:12:47;;;;;;;16.97;10.77;;;;;;;15.00;61.87;95758.78;5049839;28;20196;-70
2023/12/28 07:15:16;;;;;;;16.33;10.37;;;;;;;15.44;61.16;95766.00;5049738;28;20211;-71
2023/12/28 07:17:42;;;;;;;14.73;10.13;;;;;;;15.77;60.36;95760.34;5049390;28;20209;-66
2023/12/28 07:20:10;;;;;;;16.93;11.43;;;;;;;16.14;59.47;95762.00;5049195;28;20230;-67
2023/12/28 07:22:37;;;;;;;22.47;11.73;;;;;;;16.43;58.78;95753.28;5049771;28;20670;-66
2023/12/28 07:25:05;;;;;;;16.90;11.40;;;;;;;16.78;57.76;95758.44;5049585;28;20218;-69
2023/12/28 07:27:32;;;;;;;17.17;11.23;;;;;;;16.97;57.22;95741.16;5049468;28;20379;-64
2023/12/28 07:29:59;;;;;;;15.07;11.60;;;;;;;17.36;56.53;95764.00;5049313;28;20580;-65
2023/12/28 07:32:29;;;;;;;18.23;11.90;;;;;;;17.68;55.91;95773.72;5049348;28;20277;-66
2023/12/28 07:34:56;;;;;;;19.20;12.33;;;;;;;17.95;55.21;95777.88;5049580;28;20256;-65
2023/12/28 07:37:23;;;;;;;16.77;12.30;;;;;;;18.04;54.45;95756.25;5049311;28;20187;-67
2023/12/28 07:39:49;;;;;;;19.70;11.87;;;;;;;18.42;53.86;95775.59;5049574;28;20221;-71
2023/12/28 07:42:16;;;;;;;17.17;11.13;;;;;;;18.51;53.39;95753.91;5049280;28;20190;-72
2023/12/28 07:44:43;;;;;;;18.33;12.27;;;;;;;18.72;53.37;95769.00;5049260;28;20206;-74
2023/12/28 07:47:11;;;;;;;20.20;13.50;;;;;;;18.74;53.11;95768.88;5049093;28;20221;-74
2023/12/28 07:49:39;;;;;;;17.97;13.20;;;;;;;18.62;52.94;95763.16;5051642;28;20224;-73
2023/12/28 07:52:07;;;;;;;18.23;13.90;;;;;;;18.46;52.85;95778.69;5053648;28;20187;-73
2023/12/28 07:54:34;;;;;;;24.70;13.60;;;;;;;18.22;53.02;95767.31;5053901;28;20183;-74
2023/12/28 07:57:01;;;;;;;18.60;13.60;;;;;;;18.05;52.96;95773.41;5053426;28;20304;-73
2023/12/28 07:59:28;;;;;;;21.77;13.87;;;;;;;17.80;52.95;95773.31;5053176;28;20214;-73
2023/12/28 08:01:55;;;;;;;24.23;14.23;;;;;;;17.61;53.03;95793.41;5053491;28;20684;-72
2023/12/28 08:04:22;;;;;;;23.07;14.10;;;;;;;17.41;52.81;95788.44;5053563;28;20705;-71
2023/12/28 08:06:50;;;;;;;23.87;14.93;;;;;;;17.36;52.59;95782.09;5053323;28;20667;-67
2023/12/28 08:09:16;;;;;;;20.23;14.27;;;;;;;17.32;52.12;95749.78;5053636;28;20194;-70
2023/12/28 08:11:43;;;;;;;22.33;15.13;;;;;;;16.88;51.76;95691.19;5053705;28;20191;-74
2023/12/28 08:14:10;;;;;;;23.70;14.73;;;;;;;17.14;51.93;95762.72;5052617;28;20575;-67
2023/12/28 08:16:37;;;;;;;21.33;14.40;;;;;;;16.91;52.07;95765.00;5052847;28;20214;-69
2023/12/28 08:19:04;;;;;;;21.27;14.97;;;;;;;16.50;52.38;95736.25;5052460;28;20226;-69
2023/12/28 08:21:31;;;;;;;23.30;15.23;;;;;;;16.53;52.35;95759.16;5052800;28;20191;-69
2023/12/28 08:23:59;;;;;;;23.83;15.30;;;;;;;16.38;52.47;95758.06;5052574;28;20183;-72
2023/12/28 08:26:26;;;;;;;22.03;14.10;;;;;;;16.03;52.52;95723.53;5053015;28;20640;-65
2023/12/28 08:28:53;;;;;;;20.00;15.13;;;;;;;16.13;52.69;95751.84;5052513;28;20683;-71
2023/12/28 08:31:19;;;;;;;26.00;14.33;;;;;;;16.05;52.61;95761.13;5052792;28;20197;-71
2023/12/28 08:33:46;;;;;;;23.20;14.40;;;;;;;16.09;52.42;95766.00;5052426;28;20540;-67
2023/12/28 08:36:13;;;;;;;22.50;14.53;;;;;;;16.23;52.03;95748.22;5052728;28;20253;-68
2023/12/28 08:38:40;;;;;;;26.27;15.33;;;;;;;16.62;51.12;95760.84;5052930;28;20191;-67
2023/12/28 08:41:09;;;;;;;22.50;13.97;;;;;;;16.98;50.34;95759.09;5052320;28;20198;-71
2023/12/28 08:43:36;;;;;;;19.53;14.73;;;;;;;17.23;49.78;95761.84;5052234;28;20252;-67
2023/12/28 08:46:03;;;;;;;24.67;15.50;;;;;;;17.01;49.95;95755.38;5052027;28;20230;-65
2023/12/28 08:48:30;;;;;;;22.97;14.53;;;;;;;16.67;50.28;95742.34;5052441;28;20202;-65
2023/12/28 08:50:56;;;;;;;22.63;14.73;;;;;;;16.34;50.70;95747.22;5051731;28;20273;-65
2023/12/28 08:53:23;;;;;;;21.07;14.37;;;;;;;16.10;51.21;95742.63;5052586;28;20276;-69
2023/12/28 08:55:50;;;;;;;19.23;14.13;;;;;;;15.88;51.46;95733.50;5052116;28;20302;-65
2023/12/28 08:58:19;;;;;;;21.33;13.53;;;;;;;15.68;51.63;95735.41;5052160;28;20676;-67
2023/12/28 09:00:46;;;;;;;20.67;13.97;;;;;;;15.51;52.05;95736.13;5050471;28;20199;-66
2023/12/28 09:03:13;;;;;;;17.83;13.63;;;;;;;15.37;52.23;95734.84;5052334;28;20245;-70
2023/12/28 09:05:40;;;;;;;16.63;12.30;;;;;;;15.14;52.41;95713.72;5052257;28;20187;-70
2023/12/28 09:08:07;;;;;;;22.30;12.90;;;;;;;15.13;52.50;95729.34;5052540;28;20198;-66
2023/12/28 09:10:34;;;;;;;19.07;14.00;;;;;;;15.02;52.57;95730.31;5051701;28;20202;-69
2023/12/28 09:13:01;;;;;;;19.33;12.60;;;;;;;14.88;52.61;95720.44;5051966;28;20194;-68
2023/12/28 09:15:29;;;;;;;17.57;12.30;;;;;;;14.65;53.08;95694.19;5051687;28;20192;-68
2023/12/28 09:17:57;;;;;;;19.93;13.80;;;;;;;14.46;53.13;95670.06;5051405;28;20306;-67
2023/12/28 09:20:24;;;;;;;19.13;13.53;;;;;;;14.62;53.17;95702.19;5052317;28;20191;-69
2023/12/28 09:22:56;;;;;;;21.33;13.10;;;;;;;14.60;53.30;95709.25;5052034;28;20179;-70
2023/12/28 09:25:22;;;;;;;18.93;13.20;;;;;;;14.53;53.51;95699.50;5052075;28;20191;-70
2023/12/28 09:27:49;;;;;;;19.63;13.70;;;;;;;14.46;53.43;95695.00;5051593;28;20198;-66
2023/12/28 09:30:16;;;;;;;21.23;13.03;;;;;;;14.42;53.60;95685.91;5051750;28;20294;-67
2023/12/28 09:32:44;;;;;;;22.30;12.70;;;;;;;14.38;53.71;95687.13;5051838;28;20652;-67
2023/12/28 09:35:11;;;;;;;15.57;13.10;;;;;;;14.29;53.86;95670.75;5051732;28;20191;-73
2023/12/28 09:37:38;;;;;;;23.97;14.10;;;;;;;14.29;53.87;95681.88;5051403;28;20211;-69
2023/12/28 09:40:07;;;;;;;19.03;13.10;;;;;;;14.26;53.94;95674.44;5052356;28;20194;-71
2023/12/28 09:42:49;;;;;;;20.77;13.03;;;;;;;14.14;53.91;95652.34;5056205;28;20666;-66
2023/12/28 09:45:16;;;;;;;20.87;12.67;;;;;;;14.09;53.93;95651.94;5054918;28;20664;-70
2023/12/28 09:47:45;;;;;;;19.50;12.67;;;;;;;14.17;54.10;95657.22;5051683;28;20190;-74
2023/12/28 09:50:15;;;;;;;20.27;12.70;;;;;;;14.14;54.10;95652.34;5051628;28;20297;-72
2023/12/28 09:52:43;;;;;;;16.60;13.30;;;;;;;14.15;54.01;95659.13;5051113;28;20665;-74
2023/12/28 09:55:10;;;;;;;18.37;13.03;;;;;;;14.15;54.20;95655.72;5051280;28;20649;-72
2023/12/28 09:57:38;;;;;;;18.23;13.07;;;;;;;14.12;54.47;95645.69;5050588;28;20230;-70
2023/12/28 10:00:07;;;;;;;21.63;12.97;;;;;;;14.10;54.25;95643.28;5051102;28;20199;-67
2023/12/28 10:02:35;;;;;;;17.63;12.90;;;;;;;14.07;54.37;95630.69;5050985;28;20191;-70
2023/12/28 10:05:05;;;;;;;21.33;13.03;;;;;;;14.00;54.34;95620.13;5050929;28;20191;-72
2023/12/28 10:07:32;;;;;;;22.57;13.77;;;;;;;13.98;54.28;95609.16;5051091;28;20195;-66
2023/12/28 10:09:59;;;;;;;16.87;12.60;;;;;;;14.11;54.30;95629.47;5051043;28;20205;-70
2023/12/28 10:12:27;;;;;;;20.03;13.00;;;;;;;14.13;54.17;95619.06;5050800;28;20179;-68
2023/12/28 10:14:54;;;;;;;22.67;13.50;;;;;;;14.15;54.25;95622.28;5050833;28;20562;-72
2023/12/28 10:17:21;;;;;;;18.30;12.90;;;;;;;14.16;54.31;95617.03;5050717;28;20234;-73
2023/12/28 10:19:48;;;;;;;18.70;13.23;;;;;;;14.20;54.14;95610.63;5050418;28;20281;-74
2023/12/28 10:22:16;;;;;;;19.97;13.87;;;;;;;14.11;54.33;95590.88;5050627;28;20226;-71
2023/12/28 10:24:45;;;;;;;21.00;13.80;;;;;;;14.25;54.10;95602.53;5050561;28;20195;-75
2023/12/28 10:27:13;;;;;;;18.23;12.80;;;;;;;14.32;54.16;95593.28;5051912;28;20188;-75
2023/12/28 10:29:39;;;;;;;25.37;13.73;;;;;;;14.36;54.12;95589.50;5050873;28;20199;-75
2023/12/28 10:32:07;;;;;;;21.47;13.43;;;;;;;14.39;54.26;95580.69;5053524;28;20202;-69
2023/12/28 10:34:34;;;;;;;19.47;13.77;;;;;;;14.42;53.99;95576.09;5050775;28;20190;-71
2023/12/28 10:37:01;;;;;;;19.50;12.73;;;;;;;14.45;54.24;95569.81;5050616;28;20649;-66
2023/12/28 10:39:33;;;;;;;22.27;14.47;;;;;;;14.44;54.05;95560.50;5050014;28;20266;-71
2023/12/28 10:42:05;;;;;;;21.00;14.17;;;;;;;14.52;54.08;95558.06;5050131;28;20222;-68
2023/12/28 10:44:36;;;;;;;18.33;13.17;;;;;;;14.55;53.87;95552.66;5049796;28;20195;-65
2023/12/28 10:47:06;;;;;;;18.13;13.17;;;;;;;14.50;54.00;95531.63;5050242;28;20266;-65
2023/12/28 10:49:36;;;;;;;22.13;14.33;;;;;;;14.62;53.98;95552.88;5049838;28;20188;-65
2023/12/28 10:52:07;;;;;;;21.90;14.87;;;;;;;14.61;53.97;95540.97;5049919;28;20667;-67
2023/12/28 10:54:45;;;;;;;22.53;15.50;;;;;;;14.65;53.90;95543.13;5050181;28;20183;-67
2023/12/28 10:57:24;;;;;;;20.77;14.10;;;;;;;14.68;53.93;95537.69;5050027;28;20222;-66
2023/12/28 11:00:01;;;;;;;21.97;14.83;;;;;;;14.72;53.69;95540.75;5049603;28;20206;-66
2023/12/28 11:02:34;;;;;;;22.87;15.90;;;;;;;14.74;53.67;95513.13;5049956;28;20186;-65
2023/12/28 11:05:03;;;;;;;21.00;14.50;;;;;;;14.75;53.51;95505.25;5049868;28;20229;-65
2023/12/28 11:07:32;;;;;;;24.63;15.13;;;;;;;14.95;53.63;95523.19;5050290;28;20549;-71
2023/12/28 11:10:04;;;;;;;22.63;15.27;;;;;;;14.99;53.62;95519.38;5049501;28;20200;-67
2023/12/28 11:12:32;;;;;;;22.67;16.70;;;;;;;14.72;53.60;95471.25;5049822;28;20219;-69
2023/12/28 11:15:00;;;;;;;24.50;16.20;;;;;;;14.98;53.69;95500.53;5049847;28;20595;-65
2023/12/28 11:17:29;;;;;;;22.33;16.10;;;;;;;15.05;53.78;95506.72;5050070;28;20230;-67
2023/12/28 11:19:57;;;;;;;28.23;16.67;;;;;;;15.06;53.67;95507.50;5049936;28;20306;-65
2023/12/28 11:22:24;;;;;;;26.47;15.57;;;;;;;15.10;53.63;95501.13;5050214;28;20186;-68